Lone Hickory, North Carolina
Current Conditions -  °F | °C
As of 11:54 AM on Saturday 25 Oct 2014 (Local Time) from KINT Reporting Station
Clear Clear  
Wind Chill: 66°   Ceiling: Unl
Heat Index: 66°   Visibility: 10mi
Dew Point: 32°   Wind: 0mph
Humidity: 28%   Direction: NA
Pressure: 30.04"   Gusts: NA
Location:  36.1267°N, 80.6582°W
Report Text: KINT 251554Z 00000KT 10SM CLR 19/00 A3004 RMK AO2 SLP167 T01890000
Loading
Personal Weather Stations






























Interactive Weather Map
Tropical Storm Tracking
New forecast layout! Learn more

10-Day Weather Forecast

Advertisements
Track Severe Weather on mobile